createdAt,value
2018-02-23T00:00:33.997Z,19.20
2018-02-23T00:01:34.022Z,19.80
2018-02-23T00:02:34.047Z,19.60
2018-02-23T00:03:34.071Z,20.10
2018-02-23T00:04:34.096Z,18.80
2018-02-23T00:05:34.123Z,21.00
2018-02-23T00:06:34.147Z,19.60
2018-02-23T00:07:34.173Z,19.80
2018-02-23T00:08:34.198Z,19.80
2018-02-23T00:09:34.223Z,19.90
2018-02-23T00:10:34.247Z,18.90
2018-02-23T00:11:34.273Z,19.90
2018-02-23T00:12:34.297Z,19.80
2018-02-23T00:13:34.322Z,19.60
2018-02-23T00:14:34.345Z,17.80
2018-02-23T00:15:34.371Z,18.90
2018-02-23T00:16:34.474Z,19.60
2018-02-23T00:17:34.422Z,19.20
2018-02-23T00:18:34.448Z,18.20
2018-02-23T00:19:34.471Z,19.30
2018-02-23T00:20:34.497Z,19.20
2018-02-23T00:21:34.522Z,19.70
2018-02-23T00:22:34.548Z,19.20
2018-02-23T00:23:34.571Z,19.60
2018-02-23T00:24:34.598Z,20.40
2018-02-23T00:25:34.621Z,19.10
2018-02-23T00:26:34.646Z,20.00
2018-02-23T00:27:34.670Z,19.30
2018-02-23T00:28:34.696Z,18.10
2018-02-23T00:29:34.720Z,19.10
2018-02-23T00:30:34.747Z,19.20
2018-02-23T00:31:34.770Z,19.50
2018-02-23T00:32:34.795Z,19.90
2018-02-23T00:33:34.820Z,19.40
2018-02-23T00:34:34.845Z,19.60
2018-02-23T00:35:34.870Z,18.60
2018-02-23T00:36:34.897Z,19.40
2018-02-23T00:37:34.919Z,19.20
2018-02-23T00:38:34.944Z,19.90
2018-02-23T00:39:34.969Z,19.00
2018-02-23T00:40:34.994Z,20.80
2018-02-23T00:41:35.021Z,19.20
2018-02-23T00:42:35.042Z,19.30
2018-02-23T00:43:35.068Z,20.30
2018-02-23T00:44:35.098Z,18.80
2018-02-23T00:45:35.120Z,18.90
2018-02-23T00:46:35.142Z,18.20
2018-02-23T00:47:35.170Z,20.10
2018-02-23T00:48:35.193Z,20.20
2018-02-23T00:49:35.218Z,19.40
2018-02-23T00:50:35.241Z,19.50
2018-02-23T00:51:35.267Z,18.20
2018-02-23T00:52:35.292Z,19.50
2018-02-23T00:53:35.316Z,19.80
2018-02-23T00:54:35.341Z,19.30
2018-02-23T00:55:35.366Z,21.40
2018-02-23T00:56:35.392Z,19.90
2018-02-23T00:57:35.417Z,20.00
2018-02-23T00:58:35.442Z,20.10
2018-02-23T00:59:35.497Z,19.60
2018-02-23T01:00:35.494Z,18.50
2018-02-23T01:01:35.516Z,19.80
2018-02-23T01:02:35.541Z,18.90
2018-02-23T01:03:35.565Z,18.90
2018-02-23T01:04:35.592Z,19.00
2018-02-23T01:05:35.617Z,18.20
2018-02-23T01:06:35.640Z,19.50
2018-02-23T01:07:35.667Z,19.20
2018-02-23T01:08:35.691Z,19.30
2018-02-23T01:09:35.716Z,18.80
2018-02-23T01:10:35.741Z,20.10
2018-02-23T01:11:35.765Z,17.90
2018-02-23T01:12:35.791Z,18.30
2018-02-23T01:13:35.819Z,19.80
2018-02-23T01:14:35.840Z,19.40
2018-02-23T01:15:35.866Z,18.70
2018-02-23T01:16:35.891Z,19.10
2018-02-23T01:17:35.919Z,19.00
2018-02-23T01:18:35.941Z,18.70
2018-02-23T01:19:35.966Z,18.20
2018-02-23T01:20:35.991Z,18.60
2018-02-23T01:21:36.016Z,18.20
2018-02-23T01:22:36.040Z,18.00
2018-02-23T01:23:36.066Z,18.80
2018-02-23T01:24:36.091Z,18.30
2018-02-23T01:25:36.115Z,17.90
2018-02-23T01:26:36.140Z,17.80
2018-02-23T01:27:36.165Z,19.20
2018-02-23T01:28:36.189Z,19.10
2018-02-23T01:29:36.215Z,18.20
2018-02-23T01:30:36.241Z,19.00
2018-02-23T01:31:36.265Z,18.40
2018-02-23T01:32:36.291Z,18.50
2018-02-23T01:33:36.315Z,17.60
2018-02-23T01:34:36.344Z,18.20
2018-02-23T01:35:36.363Z,17.90
2018-02-23T01:36:36.389Z,17.70
2018-02-23T01:37:36.415Z,18.50
2018-02-23T01:38:36.449Z,17.70
2018-02-23T01:39:36.462Z,17.30
2018-02-23T01:40:36.487Z,18.00
2018-02-23T01:41:36.512Z,18.20
2018-02-23T01:42:36.559Z,18.70
2018-02-23T01:43:36.563Z,18.80
2018-02-23T01:44:36.588Z,18.60
2018-02-23T01:45:36.616Z,19.60
2018-02-23T01:46:36.636Z,18.00
2018-02-23T01:47:36.666Z,17.30
2018-02-23T01:48:36.687Z,19.00
2018-02-23T01:49:36.713Z,18.70
2018-02-23T01:50:36.737Z,18.70
2018-02-23T01:51:36.761Z,18.30
2018-02-23T01:52:36.786Z,19.40
2018-02-23T01:53:36.811Z,19.00
2018-02-23T01:54:36.836Z,18.00
2018-02-23T01:55:36.860Z,18.50
2018-02-23T01:56:36.884Z,18.20
2018-02-23T01:57:36.911Z,19.00
2018-02-23T01:58:36.933Z,19.10
2018-02-23T01:59:36.960Z,19.20
2018-02-23T02:00:36.985Z,19.60
2018-02-23T02:01:37.011Z,17.80
2018-02-23T02:02:37.040Z,18.80
2018-02-23T02:03:37.059Z,18.40
2018-02-23T02:04:37.082Z,17.70
2018-02-23T02:05:37.109Z,18.20
2018-02-23T02:06:37.134Z,18.80
2018-02-23T02:07:37.158Z,16.80
2018-02-23T02:08:37.183Z,18.20
2018-02-23T02:09:37.209Z,16.90
2018-02-23T02:10:37.233Z,18.50
2018-02-23T02:11:37.257Z,18.40
2018-02-23T02:12:37.282Z,18.00
2018-02-23T02:13:37.307Z,17.50
2018-02-23T02:14:37.334Z,18.60
2018-02-23T02:15:37.357Z,18.50
2018-02-23T02:16:37.380Z,17.40
2018-02-23T02:17:37.408Z,17.70
2018-02-23T02:18:37.429Z,17.70
2018-02-23T02:19:37.454Z,18.20
2018-02-23T02:20:37.483Z,18.40
2018-02-23T02:21:37.509Z,17.90
2018-02-23T02:22:37.531Z,18.30
2018-02-23T02:23:37.553Z,17.10
2018-02-23T02:24:37.577Z,18.00
2018-02-23T02:25:37.604Z,18.20
2018-02-23T02:26:37.625Z,18.50
2018-02-23T02:27:37.651Z,18.50
2018-02-23T02:28:37.675Z,17.80
2018-02-23T02:29:37.703Z,18.90
2018-02-23T02:30:37.726Z,19.10
2018-02-23T02:31:37.750Z,17.90
2018-02-23T02:32:37.775Z,18.20
2018-02-23T02:33:37.800Z,18.90
2018-02-23T02:34:37.825Z,18.60
2018-02-23T02:35:37.849Z,18.40
2018-02-23T02:36:37.874Z,17.40
2018-02-23T02:37:37.898Z,18.40
2018-02-23T02:38:37.924Z,18.00
2018-02-23T02:39:37.951Z,17.90
2018-02-23T02:40:37.973Z,18.40
2018-02-23T02:41:37.996Z,17.20
2018-02-23T02:42:38.022Z,18.00
2018-02-23T02:43:38.045Z,19.00
2018-02-23T02:44:38.083Z,18.10
2018-02-23T02:45:38.096Z,17.40
2018-02-23T02:46:38.130Z,19.50
2018-02-23T02:47:38.143Z,19.60
2018-02-23T02:48:38.170Z,18.40
2018-02-23T02:49:38.194Z,19.50
2018-02-23T02:50:38.218Z,19.60
2018-02-23T02:51:38.243Z,19.10
2018-02-23T02:52:38.267Z,18.40
2018-02-23T02:53:38.293Z,20.00
2018-02-23T02:54:38.316Z,18.30
2018-02-23T02:55:38.342Z,19.90
2018-02-23T02:56:38.366Z,19.30
2018-02-23T02:57:38.389Z,18.80
2018-02-23T02:58:38.415Z,19.90
2018-02-23T02:59:38.440Z,19.40
2018-02-23T03:00:38.466Z,19.60
2018-02-23T03:01:38.490Z,20.70
2018-02-23T03:02:38.513Z,19.40
2018-02-23T03:03:38.541Z,22.30
2018-02-23T03:04:38.563Z,20.30
2018-02-23T03:05:38.587Z,21.50
2018-02-23T03:06:38.611Z,21.70
2018-02-23T03:07:38.638Z,21.40
2018-02-23T03:08:38.660Z,21.30
2018-02-23T03:09:38.687Z,21.10
2018-02-23T03:10:38.709Z,21.30
2018-02-23T03:11:38.735Z,23.40
2018-02-23T03:12:38.760Z,23.70
2018-02-23T03:13:38.786Z,22.00
2018-02-23T03:14:38.808Z,22.90
2018-02-23T03:15:38.831Z,24.30
2018-02-23T03:16:38.856Z,24.20
2018-02-23T03:17:38.887Z,23.20
2018-02-23T03:18:38.906Z,23.50
2018-02-23T03:19:38.930Z,24.50
2018-02-23T03:20:38.955Z,23.10
2018-02-23T03:21:38.980Z,23.60
2018-02-23T03:22:39.004Z,24.60
2018-02-23T03:23:39.028Z,24.10
2018-02-23T03:24:39.053Z,25.00
2018-02-23T03:25:39.078Z,24.10
2018-02-23T03:26:39.102Z,24.00
2018-02-23T03:27:39.126Z,24.00
2018-02-23T03:28:39.151Z,23.60
2018-02-23T03:29:39.175Z,24.20
2018-02-23T03:30:39.207Z,23.90
2018-02-23T03:31:39.225Z,24.20
2018-02-23T03:32:39.249Z,23.50
2018-02-23T03:33:39.275Z,23.20
2018-02-23T03:34:39.297Z,23.60
2018-02-23T03:35:39.322Z,25.50
2018-02-23T03:36:39.346Z,23.50
2018-02-23T03:37:39.372Z,24.30
2018-02-23T03:38:39.399Z,25.70
2018-02-23T03:39:39.420Z,24.10
2018-02-23T03:40:39.444Z,24.20
2018-02-23T03:41:39.469Z,25.00
2018-02-23T03:42:39.491Z,23.70
2018-02-23T03:43:39.517Z,25.60
2018-02-23T03:44:39.542Z,23.50
2018-02-23T03:45:39.566Z,24.30
2018-02-23T03:46:39.592Z,25.40
2018-02-23T03:47:39.616Z,25.10
2018-02-23T03:48:39.641Z,25.10
2018-02-23T03:49:39.664Z,25.00
2018-02-23T03:50:39.689Z,24.70
2018-02-23T03:51:39.714Z,24.60
2018-02-23T03:52:39.738Z,24.90
2018-02-23T03:53:39.763Z,24.40
2018-02-23T03:54:39.786Z,24.00
2018-02-23T03:55:39.811Z,25.30
2018-02-23T03:56:39.867Z,23.80
2018-02-23T03:57:39.860Z,25.20
2018-02-23T03:58:39.884Z,24.30
2018-02-23T03:59:39.910Z,25.50
2018-02-23T04:00:39.934Z,25.10
2018-02-23T04:01:39.959Z,24.30
2018-02-23T04:02:39.982Z,23.80
2018-02-23T04:03:40.006Z,24.80
2018-02-23T04:04:40.032Z,24.10
2018-02-23T04:05:40.057Z,24.40
2018-02-23T04:06:40.084Z,24.00
2018-02-23T04:07:40.105Z,23.80
2018-02-23T04:08:40.130Z,23.40
2018-02-23T04:09:40.154Z,24.10
2018-02-23T04:10:40.177Z,24.10
2018-02-23T04:11:40.202Z,23.70
2018-02-23T04:12:40.228Z,23.90
2018-02-23T04:13:40.252Z,23.70
2018-02-23T04:14:40.275Z,24.60
2018-02-23T04:15:40.301Z,23.90
2018-02-23T04:16:40.327Z,24.70
2018-02-23T04:17:40.349Z,23.10
2018-02-23T04:18:40.374Z,25.70
2018-02-23T04:19:40.398Z,24.10
2018-02-23T04:20:40.422Z,24.60
2018-02-23T04:21:40.447Z,25.10
2018-02-23T04:22:40.474Z,24.00
2018-02-23T04:23:40.495Z,24.80
2018-02-23T04:24:40.519Z,24.40
2018-02-23T04:25:40.544Z,23.90
2018-02-23T04:26:40.569Z,24.10
2018-02-23T04:27:40.593Z,24.10
2018-02-23T04:28:40.617Z,23.30
2018-02-23T04:29:40.641Z,23.50
2018-02-23T04:30:40.665Z,24.50
2018-02-23T04:31:40.690Z,24.10
2018-02-23T04:32:40.716Z,23.30
2018-02-23T04:33:40.739Z,24.30
2018-02-23T04:34:40.763Z,23.00
2018-02-23T04:35:40.785Z,22.10
2018-02-23T04:36:40.811Z,23.60
2018-02-23T04:37:40.839Z,23.00
2018-02-23T04:38:40.860Z,24.40
2018-02-23T04:39:40.884Z,24.30
2018-02-23T04:40:40.909Z,24.40
2018-02-23T04:41:40.934Z,24.10
2018-02-23T04:42:40.957Z,24.80
2018-02-23T04:43:40.982Z,24.90
2018-02-23T04:44:41.009Z,23.30
2018-02-23T04:45:41.033Z,24.70
2018-02-23T04:46:41.053Z,24.90
2018-02-23T04:47:41.080Z,24.00
2018-02-23T04:48:41.103Z,25.30
2018-02-23T04:49:41.127Z,25.20
2018-02-23T04:50:41.151Z,24.30
2018-02-23T04:51:41.180Z,24.50
2018-02-23T04:52:41.202Z,25.00
2018-02-23T04:53:41.223Z,24.60
2018-02-23T04:54:41.247Z,24.40
2018-02-23T04:55:41.272Z,24.00
2018-02-23T04:56:41.295Z,24.00
2018-02-23T04:57:41.324Z,24.20
2018-02-23T04:58:41.344Z,24.40
2018-02-23T04:59:41.368Z,24.10
2018-02-23T05:00:41.393Z,24.60
2018-02-23T05:01:41.418Z,24.80
2018-02-23T05:02:41.441Z,24.00
2018-02-23T05:03:41.466Z,24.80
2018-02-23T05:04:41.491Z,24.40
2018-02-23T05:05:41.513Z,23.70
2018-02-23T05:06:41.538Z,24.50
2018-02-23T05:07:41.562Z,24.60
2018-02-23T05:08:41.587Z,24.90
2018-02-23T05:09:41.611Z,25.10
2018-02-23T05:10:41.637Z,23.60
2018-02-23T05:11:41.659Z,24.00
2018-02-23T05:12:41.685Z,24.80
2018-02-23T05:13:41.709Z,24.50
2018-02-23T05:14:41.733Z,24.90
2018-02-23T05:15:41.757Z,24.20
2018-02-23T05:16:41.781Z,25.10
2018-02-23T05:17:41.807Z,24.10
2018-02-23T05:18:41.829Z,25.20
2018-02-23T05:19:41.853Z,23.20
2018-02-23T05:20:41.878Z,23.60
2018-02-23T05:21:41.903Z,22.10
2018-02-23T05:22:41.926Z,22.80
2018-02-23T05:23:41.951Z,23.00
2018-02-23T05:24:41.977Z,23.00
2018-02-23T05:25:41.999Z,23.70
2018-02-23T05:26:42.025Z,22.70
2018-02-23T05:27:42.049Z,22.90
2018-02-23T05:28:42.073Z,21.10
2018-02-23T05:29:42.097Z,21.80
2018-02-23T05:30:42.120Z,21.10
2018-02-23T05:31:42.145Z,20.70
2018-02-23T05:32:42.170Z,21.30
2018-02-23T05:33:42.194Z,21.10
2018-02-23T05:34:42.218Z,21.80
2018-02-23T05:35:42.242Z,22.40
2018-02-23T05:36:42.267Z,21.60
2018-02-23T05:37:42.292Z,21.10
2018-02-23T05:38:42.315Z,20.90
2018-02-23T05:39:42.340Z,21.50
2018-02-23T05:40:42.364Z,20.30
2018-02-23T05:41:42.388Z,21.40
2018-02-23T05:42:42.411Z,20.90
2018-02-23T05:43:42.436Z,20.70
2018-02-23T05:44:42.462Z,20.00
2018-02-23T05:45:42.485Z,20.70
2018-02-23T05:46:42.509Z,19.20
2018-02-23T05:47:42.534Z,19.40
2018-02-23T05:48:42.557Z,17.80
2018-02-23T05:49:42.584Z,18.50
2018-02-23T05:50:42.606Z,18.90
2018-02-23T05:51:42.630Z,19.00
2018-02-23T05:52:42.656Z,19.10
2018-02-23T05:53:42.680Z,18.90
2018-02-23T05:54:42.701Z,18.30
2018-02-23T05:55:42.727Z,18.10
2018-02-23T05:56:42.753Z,18.30
2018-02-23T05:57:42.776Z,17.90
2018-02-23T05:58:42.801Z,18.80
2018-02-23T05:59:42.829Z,18.20
2018-02-23T06:00:42.849Z,18.70
2018-02-23T06:01:42.876Z,18.00
2018-02-23T06:02:42.896Z,20.00
2018-02-23T06:03:42.925Z,18.20
2018-02-23T06:04:42.946Z,18.30
2018-02-23T06:05:42.970Z,18.30
2018-02-23T06:06:42.995Z,18.30
2018-02-23T06:07:43.017Z,18.80
2018-02-23T06:08:43.043Z,19.10
2018-02-23T06:09:43.066Z,17.50
2018-02-23T06:10:43.089Z,18.10
2018-02-23T06:11:43.116Z,18.70
2018-02-23T06:12:43.137Z,19.20
2018-02-23T06:13:43.162Z,19.40
2018-02-23T06:14:43.185Z,18.40
2018-02-23T06:15:43.211Z,17.40
2018-02-23T06:16:43.235Z,18.70
2018-02-23T06:17:43.258Z,18.00
2018-02-23T06:18:43.281Z,18.00
2018-02-23T06:19:43.306Z,19.30
2018-02-23T06:20:43.330Z,19.00
2018-02-23T06:21:43.355Z,17.80
2018-02-23T06:22:43.382Z,19.20
2018-02-23T06:23:43.403Z,18.70
2018-02-23T06:24:43.425Z,18.40
2018-02-23T06:25:43.450Z,18.70
2018-02-23T06:26:43.474Z,18.40
2018-02-23T06:27:43.500Z,19.10
2018-02-23T06:28:43.524Z,18.50
2018-02-23T06:29:43.548Z,19.40
2018-02-23T06:30:43.581Z,19.20
2018-02-23T06:31:43.595Z,20.20
2018-02-23T06:32:43.619Z,20.10
2018-02-23T06:33:43.644Z,17.90
2018-02-23T06:34:43.668Z,17.80
2018-02-23T06:35:43.703Z,19.20
2018-02-23T06:36:43.717Z,18.80
2018-02-23T06:37:43.746Z,19.10
2018-02-23T06:38:43.765Z,17.80
2018-02-23T06:39:43.790Z,19.40
2018-02-23T06:40:43.815Z,18.40
2018-02-23T06:41:43.839Z,19.30
2018-02-23T06:42:43.862Z,19.40
2018-02-23T06:43:43.886Z,20.30
2018-02-23T06:44:43.916Z,19.60
2018-02-23T06:45:43.936Z,18.70
2018-02-23T06:46:43.960Z,18.20
2018-02-23T06:47:43.984Z,18.50
2018-02-23T06:48:44.009Z,19.40
2018-02-23T06:49:44.033Z,18.50
2018-02-23T06:50:44.057Z,18.20
2018-02-23T06:51:44.081Z,18.50
2018-02-23T06:52:44.105Z,20.00
2018-02-23T06:53:44.132Z,21.00
2018-02-23T06:54:44.152Z,21.80
2018-02-23T06:55:44.181Z,21.50
2018-02-23T06:56:44.202Z,20.60
2018-02-23T06:57:44.226Z,20.50
2018-02-23T06:58:44.250Z,19.10
2018-02-23T06:59:44.274Z,20.20
2018-02-23T07:00:44.298Z,20.20
2018-02-23T07:01:44.321Z,19.40
2018-02-23T07:02:44.347Z,20.30
2018-02-23T07:03:44.371Z,19.20
2018-02-23T07:04:44.417Z,20.10
2018-02-23T07:05:44.612Z,20.50
2018-02-23T07:06:44.443Z,19.10
2018-02-23T07:07:44.468Z,19.20
2018-02-23T07:08:44.493Z,19.80
2018-02-23T07:09:44.516Z,19.90
2018-02-23T07:10:44.541Z,19.00
2018-02-23T07:11:44.566Z,20.00
2018-02-23T07:12:44.590Z,19.90
2018-02-23T07:13:44.628Z,19.30
2018-02-23T07:14:44.638Z,19.60
2018-02-23T07:15:44.662Z,19.20
2018-02-23T07:16:44.688Z,19.90
2018-02-23T07:17:44.715Z,19.50
2018-02-23T07:18:44.736Z,19.60
2018-02-23T07:19:44.761Z,19.70
2018-02-23T07:20:44.785Z,19.30
2018-02-23T07:21:44.811Z,20.60
2018-02-23T07:22:44.833Z,19.70
2018-02-23T07:23:44.859Z,19.80
2018-02-23T07:24:44.883Z,20.20
2018-02-23T07:25:44.908Z,20.90
2018-02-23T07:26:44.932Z,20.80
2018-02-23T07:27:44.956Z,20.90
2018-02-23T07:28:44.981Z,20.30
2018-02-23T07:29:45.006Z,19.60
2018-02-23T07:30:45.031Z,20.80
2018-02-23T07:31:45.056Z,21.10
2018-02-23T07:32:45.079Z,20.80
2018-02-23T07:33:45.104Z,21.50
2018-02-23T07:34:45.128Z,21.00
2018-02-23T07:35:45.153Z,21.00
2018-02-23T07:36:45.177Z,21.00
2018-02-23T07:37:45.203Z,20.50
2018-02-23T07:38:45.226Z,20.90
2018-02-23T07:39:45.252Z,21.30
2018-02-23T07:40:45.279Z,20.70
2018-02-23T07:41:45.301Z,20.50
2018-02-23T07:42:45.325Z,19.90
2018-02-23T07:43:45.349Z,21.30
2018-02-23T07:44:45.375Z,21.50
2018-02-23T07:45:45.400Z,21.60
2018-02-23T07:46:45.423Z,20.90
2018-02-23T07:47:45.449Z,21.30
2018-02-23T07:48:45.473Z,21.80
2018-02-23T07:49:45.499Z,21.10
2018-02-23T07:50:45.522Z,20.10
2018-02-23T07:51:45.547Z,20.80
2018-02-23T07:52:45.573Z,21.10
2018-02-23T07:53:45.597Z,20.60
2018-02-23T07:54:45.621Z,20.80
2018-02-23T07:55:45.646Z,21.00
2018-02-23T07:56:45.671Z,20.30
2018-02-23T07:57:45.696Z,20.90
2018-02-23T07:58:45.720Z,21.20
2018-02-23T07:59:45.745Z,20.30
2018-02-23T08:00:45.770Z,19.80
2018-02-23T08:01:45.795Z,21.10
2018-02-23T08:02:45.819Z,19.60
2018-02-23T08:03:45.843Z,20.20
2018-02-23T08:04:45.867Z,21.40
2018-02-23T08:05:45.895Z,21.50
2018-02-23T08:06:45.918Z,22.30
2018-02-23T08:07:45.947Z,22.20
2018-02-23T08:08:45.968Z,20.90
2018-02-23T08:09:45.994Z,20.70
2018-02-23T08:10:46.020Z,20.20
2018-02-23T08:11:46.043Z,19.90
2018-02-23T08:12:46.067Z,21.10
2018-02-23T08:13:46.092Z,21.60
2018-02-23T08:14:46.120Z,22.40
2018-02-23T08:15:46.141Z,21.00
2018-02-23T08:16:46.166Z,21.80
2018-02-23T08:17:46.190Z,22.00
2018-02-23T08:18:46.215Z,23.70
2018-02-23T08:19:46.241Z,23.50
2018-02-23T08:20:46.266Z,21.50
2018-02-23T08:21:46.291Z,23.10
2018-02-23T08:22:46.324Z,21.80
2018-02-23T08:23:46.339Z,21.10
2018-02-23T08:24:46.365Z,20.30
2018-02-23T08:25:46.389Z,21.10
2018-02-23T08:26:46.414Z,21.90
2018-02-23T08:27:46.439Z,20.40
2018-02-23T08:28:46.464Z,19.80
2018-02-23T08:29:46.489Z,20.80
2018-02-23T08:30:46.514Z,21.10
2018-02-23T08:31:46.539Z,19.70
2018-02-23T08:32:46.563Z,20.90
2018-02-23T08:33:46.593Z,21.10
2018-02-23T08:34:46.615Z,20.40
2018-02-23T08:35:46.636Z,21.20
2018-02-23T08:36:46.662Z,21.90
2018-02-23T08:37:46.686Z,21.10
2018-02-23T08:38:46.712Z,20.50
2018-02-23T08:39:46.736Z,21.00
2018-02-23T08:40:46.761Z,22.20
2018-02-23T08:41:46.786Z,21.80
2018-02-23T08:42:46.811Z,21.30
2018-02-23T08:43:46.833Z,20.50
2018-02-23T08:44:46.860Z,20.10
2018-02-23T08:45:46.888Z,21.20
2018-02-23T08:46:46.909Z,22.20
2018-02-23T08:47:46.934Z,20.40
2018-02-23T08:48:46.959Z,22.10
2018-02-23T08:49:46.984Z,21.90
2018-02-23T08:50:47.008Z,20.10
2018-02-23T08:51:47.032Z,21.30
2018-02-23T08:52:47.060Z,21.40
2018-02-23T08:53:47.084Z,21.50
2018-02-23T08:54:47.107Z,20.80
2018-02-23T08:55:47.186Z,21.10
2018-02-23T08:56:47.157Z,22.30
2018-02-23T08:57:47.182Z,22.40
2018-02-23T08:58:47.206Z,22.90
2018-02-23T08:59:47.232Z,21.40
2018-02-23T09:00:47.256Z,21.20
2018-02-23T09:01:47.282Z,21.00
2018-02-23T09:02:47.306Z,21.30
2018-02-23T09:03:47.330Z,20.60
2018-02-23T09:04:47.355Z,21.40
2018-02-23T09:05:47.381Z,21.10
2018-02-23T09:06:47.405Z,21.00
2018-02-23T09:07:47.429Z,21.80
2018-02-23T09:08:47.455Z,22.40
2018-02-23T09:09:47.484Z,21.20
2018-02-23T09:10:47.503Z,23.00
2018-02-23T09:11:47.529Z,20.80
2018-02-23T09:12:47.554Z,21.80
2018-02-23T09:13:47.580Z,21.40
2018-02-23T09:14:47.603Z,21.20
2018-02-23T09:15:47.649Z,21.40
2018-02-23T09:16:47.654Z,20.80
2018-02-23T09:17:47.679Z,23.00
2018-02-23T09:18:47.704Z,21.20
2018-02-23T09:19:47.731Z,21.30
2018-02-23T09:20:47.753Z,21.30
2018-02-23T09:21:47.778Z,21.80
2018-02-23T09:22:47.803Z,22.20
2018-02-23T09:23:47.828Z,22.60
2018-02-23T09:24:47.854Z,23.00
2018-02-23T09:25:47.879Z,22.40
2018-02-23T09:26:47.904Z,21.50
2018-02-23T09:27:47.931Z,21.90
2018-02-23T09:28:47.954Z,21.10
2018-02-23T09:29:47.980Z,22.00
2018-02-23T09:30:48.004Z,22.20
2018-02-23T09:31:48.030Z,22.10
2018-02-23T09:32:48.055Z,22.50
2018-02-23T09:33:48.081Z,23.60
2018-02-23T09:34:48.108Z,23.00
2018-02-23T09:35:48.130Z,22.10
2018-02-23T09:36:48.155Z,20.90
2018-02-23T09:37:48.181Z,21.30
2018-02-23T09:38:48.204Z,23.00
2018-02-23T09:39:48.231Z,22.10
2018-02-23T09:40:48.258Z,22.50
2018-02-23T09:41:48.284Z,21.50
2018-02-23T09:42:48.305Z,21.90
2018-02-23T09:43:48.333Z,21.90
2018-02-23T09:44:48.359Z,21.80
2018-02-23T09:45:48.382Z,21.70
2018-02-23T09:46:48.407Z,22.40
2018-02-23T09:47:48.432Z,22.90
2018-02-23T09:48:48.457Z,22.90
2018-02-23T09:49:48.483Z,21.90
2018-02-23T09:50:48.508Z,22.50
2018-02-23T09:51:48.533Z,22.50
2018-02-23T09:52:48.559Z,21.90
2018-02-23T09:53:48.584Z,23.10
2018-02-23T09:54:48.607Z,23.70
2018-02-23T09:55:48.632Z,22.40
2018-02-23T09:56:48.659Z,22.80
2018-02-23T09:57:48.688Z,23.40
2018-02-23T09:58:48.710Z,22.30
2018-02-23T09:59:48.736Z,23.20
2018-02-23T10:00:48.765Z,23.90
2018-02-23T10:01:48.786Z,26.40
2018-02-23T10:02:48.810Z,28.10
2018-02-23T10:03:48.836Z,25.00
2018-02-23T10:04:48.862Z,23.30
2018-02-23T10:05:48.888Z,22.70
2018-02-23T10:06:48.911Z,21.90
2018-02-23T10:07:48.937Z,24.00
2018-02-23T10:08:48.963Z,23.20
2018-02-23T10:09:48.988Z,25.30
2018-02-23T10:10:49.028Z,25.30
2018-02-23T10:11:49.038Z,28.10
2018-02-23T10:12:49.064Z,32.30
2018-02-23T10:13:49.090Z,25.40
2018-02-23T10:14:49.118Z,25.30
2018-02-23T10:15:49.140Z,24.20
2018-02-23T10:16:49.165Z,23.40
2018-02-23T10:17:49.190Z,23.40
2018-02-23T10:18:49.215Z,23.50
2018-02-23T10:19:49.241Z,23.10
2018-02-23T10:20:49.268Z,22.80
2018-02-23T10:21:49.296Z,24.40
2018-02-23T10:22:49.318Z,23.10
2018-02-23T10:23:49.344Z,25.20
2018-02-23T10:24:49.372Z,25.70
2018-02-23T10:25:49.398Z,24.10
2018-02-23T10:26:49.419Z,24.20
2018-02-23T10:27:49.443Z,24.30
2018-02-23T10:28:49.470Z,23.10
2018-02-23T10:29:49.496Z,23.70
2018-02-23T10:30:49.520Z,23.70
2018-02-23T10:31:49.547Z,23.40
2018-02-23T10:32:49.621Z,23.80
2018-02-23T10:33:49.598Z,25.30
2018-02-23T10:34:49.623Z,23.50
2018-02-23T10:35:49.649Z,24.20
2018-02-23T10:36:49.678Z,23.30
2018-02-23T10:37:49.700Z,23.90
2018-02-23T10:38:49.724Z,24.30
2018-02-23T10:39:49.769Z,24.40
2018-02-23T10:40:49.804Z,25.10
2018-02-23T10:41:49.829Z,22.20
2018-02-23T10:42:49.855Z,23.60
2018-02-23T10:43:49.883Z,23.10
2018-02-23T10:44:49.878Z,22.90
2018-02-23T10:45:49.905Z,22.90
2018-02-23T10:46:49.931Z,23.20
2018-02-23T10:47:49.955Z,23.20
2018-02-23T10:48:49.981Z,23.30
2018-02-23T10:49:50.006Z,24.20
2018-02-23T10:50:50.040Z,23.60
2018-02-23T10:51:50.056Z,24.00
2018-02-23T10:52:50.082Z,23.90
2018-02-23T10:53:50.123Z,24.20
2018-02-23T10:54:50.133Z,24.90
2018-02-23T10:55:50.159Z,23.90
2018-02-23T10:56:50.185Z,23.70
2018-02-23T10:57:50.214Z,24.30
2018-02-23T10:58:50.236Z,23.80
2018-02-23T10:59:50.262Z,23.20
2018-02-23T11:00:50.288Z,23.40
2018-02-23T11:01:50.329Z,23.80
2018-02-23T11:02:50.338Z,21.90
2018-02-23T11:03:50.365Z,22.90
2018-02-23T11:04:50.392Z,24.50
2018-02-23T11:05:50.415Z,24.90
2018-02-23T11:06:50.441Z,23.90
2018-02-23T11:07:50.467Z,24.30
2018-02-23T11:08:50.494Z,23.50
2018-02-23T11:09:50.518Z,22.50
2018-02-23T11:10:50.543Z,22.70
2018-02-23T11:11:50.569Z,22.80
2018-02-23T11:12:50.596Z,23.60
2018-02-23T11:13:50.621Z,23.70
2018-02-23T11:14:50.670Z,23.40
2018-02-23T11:15:50.696Z,22.20
2018-02-23T11:16:50.723Z,22.70
2018-02-23T11:17:50.750Z,23.70
2018-02-23T11:18:50.749Z,22.80
2018-02-23T11:19:50.776Z,23.30
2018-02-23T11:20:50.802Z,23.60
2018-02-23T11:21:50.828Z,23.40
2018-02-23T11:22:50.854Z,23.30
2018-02-23T11:23:50.881Z,21.60
2018-02-23T11:24:50.906Z,23.80
2018-02-23T11:25:50.931Z,23.80
2018-02-23T11:26:50.957Z,23.10
2018-02-23T11:27:50.986Z,23.20
2018-02-23T11:28:51.010Z,24.40
2018-02-23T11:29:51.035Z,23.80
2018-02-23T11:30:51.059Z,22.80
2018-02-23T11:31:51.087Z,22.80
2018-02-23T11:32:51.112Z,22.40
2018-02-23T11:33:51.139Z,23.20
2018-02-23T11:34:51.164Z,23.30
2018-02-23T11:35:51.190Z,24.00
2018-02-23T11:36:51.216Z,24.50
2018-02-23T11:37:51.247Z,24.60
2018-02-23T11:38:51.268Z,23.40
2018-02-23T11:39:51.296Z,23.70
2018-02-23T11:40:51.322Z,23.60
2018-02-23T11:41:51.348Z,23.80
2018-02-23T11:42:51.372Z,23.20
2018-02-23T11:43:51.400Z,23.40
2018-02-23T11:44:51.425Z,22.70
2018-02-23T11:45:51.452Z,24.80
2018-02-23T11:46:51.477Z,26.20
2018-02-23T11:47:51.505Z,26.10
2018-02-23T11:48:51.530Z,25.40
2018-02-23T11:49:51.556Z,25.50
2018-02-23T11:50:51.582Z,24.10
2018-02-23T11:51:51.607Z,24.90
2018-02-23T11:52:51.636Z,25.40
2018-02-23T11:53:51.660Z,24.50
2018-02-23T11:54:51.687Z,24.20
2018-02-23T11:55:51.713Z,23.60
2018-02-23T11:56:51.740Z,23.60
2018-02-23T11:57:51.768Z,24.50
2018-02-23T11:58:51.792Z,23.90
2018-02-23T11:59:51.818Z,24.30
2018-02-23T12:00:51.855Z,23.50
2018-02-23T12:01:51.870Z,24.30
2018-02-23T12:02:51.894Z,23.80
2018-02-23T12:03:51.920Z,24.20
2018-02-23T12:04:51.946Z,24.00
2018-02-23T12:05:51.973Z,23.20
2018-02-23T12:06:52.011Z,24.70
2018-02-23T12:07:52.025Z,25.20
2018-02-23T12:08:52.052Z,23.60
2018-02-23T12:09:52.078Z,24.10
2018-02-23T12:10:52.120Z,25.20
2018-02-23T12:11:52.130Z,24.60
2018-02-23T12:12:52.156Z,25.00
2018-02-23T12:13:52.184Z,25.50
2018-02-23T12:14:52.215Z,23.80
2018-02-23T12:15:52.269Z,24.90
2018-02-23T12:16:52.261Z,25.00
2018-02-23T12:17:52.288Z,23.80
2018-02-23T12:18:52.314Z,24.70
2018-02-23T12:19:52.338Z,24.20
2018-02-23T12:20:52.366Z,24.00
2018-02-23T12:21:52.394Z,25.10
2018-02-23T12:22:52.416Z,23.60
2018-02-23T12:23:52.442Z,24.40
2018-02-23T12:24:52.469Z,23.60
2018-02-23T12:25:52.495Z,24.50
2018-02-23T12:26:52.520Z,23.50
2018-02-23T12:27:52.547Z,24.00
2018-02-23T12:28:52.576Z,24.80
2018-02-23T12:29:52.599Z,24.50
2018-02-23T12:30:52.624Z,23.70
2018-02-23T12:31:52.649Z,23.00
2018-02-23T12:32:52.676Z,24.70
2018-02-23T12:33:52.702Z,24.50
2018-02-23T12:34:52.728Z,23.50
2018-02-23T12:35:52.754Z,23.90
2018-02-23T12:36:52.781Z,23.50
2018-02-23T12:37:52.807Z,24.00
2018-02-23T12:38:52.832Z,23.90
2018-02-23T12:39:52.859Z,23.50
2018-02-23T12:40:52.884Z,22.90
2018-02-23T12:41:52.911Z,24.70
2018-02-23T12:42:52.935Z,23.80
2018-02-23T12:43:52.966Z,23.50
2018-02-23T12:44:52.994Z,24.40
2018-02-23T12:45:53.016Z,24.60
2018-02-23T12:46:53.041Z,23.60
2018-02-23T12:47:53.067Z,24.60
2018-02-23T12:48:53.094Z,23.70
2018-02-23T12:49:53.120Z,24.20
2018-02-23T12:50:53.146Z,25.70
2018-02-23T12:51:53.173Z,24.70
2018-02-23T12:52:53.199Z,23.70